sensor_id;sensor_type;location;lat;lon;timestamp;P1;durP1;ratioP1;P2;durP2;ratioP2
7971;SDS011;4031;49.758;6.120;2022-09-06T00:01:18;5.10;;;2.10;;
7971;SDS011;4031;49.758;6.120;2022-09-06T00:03:44;2.30;;;1.90;;
7971;SDS011;4031;49.758;6.120;2022-09-06T00:06:14;3.47;;;1.80;;
7971;SDS011;4031;49.758;6.120;2022-09-06T00:08:42;1.80;;;1.60;;
7971;SDS011;4031;49.758;6.120;2022-09-06T00:11:10;3.63;;;2.03;;
7971;SDS011;4031;49.758;6.120;2022-09-06T00:13:36;2.80;;;1.63;;
7971;SDS011;4031;49.758;6.120;2022-09-06T00:18:37;2.63;;;1.70;;
7971;SDS011;4031;49.758;6.120;2022-09-06T00:21:04;7.20;;;2.00;;
7971;SDS011;4031;49.758;6.120;2022-09-06T00:23:44;2.50;;;1.93;;
7971;SDS011;4031;49.758;6.120;2022-09-06T00:26:09;3.13;;;2.00;;
7971;SDS011;4031;49.758;6.120;2022-09-06T00:28:36;2.83;;;2.10;;
7971;SDS011;4031;49.758;6.120;2022-09-06T00:33:43;2.73;;;1.87;;
7971;SDS011;4031;49.758;6.120;2022-09-06T00:36:09;3.07;;;2.00;;
7971;SDS011;4031;49.758;6.120;2022-09-06T00:38:36;2.67;;;2.27;;
7971;SDS011;4031;49.758;6.120;2022-09-06T00:41:03;4.20;;;2.67;;
7971;SDS011;4031;49.758;6.120;2022-09-06T00:43:30;4.50;;;2.13;;
7971;SDS011;4031;49.758;6.120;2022-09-06T00:45:57;4.70;;;2.27;;
7971;SDS011;4031;49.758;6.120;2022-09-06T00:48:23;2.60;;;2.40;;
7971;SDS011;4031;49.758;6.120;2022-09-06T00:50:49;3.27;;;2.47;;
7971;SDS011;4031;49.758;6.120;2022-09-06T00:53:19;4.40;;;2.83;;
7971;SDS011;4031;49.758;6.120;2022-09-06T00:55:45;3.60;;;2.53;;
7971;SDS011;4031;49.758;6.120;2022-09-06T00:58:13;3.40;;;2.10;;
7971;SDS011;4031;49.758;6.120;2022-09-06T01:00:39;4.97;;;2.77;;
7971;SDS011;4031;49.758;6.120;2022-09-06T01:03:05;4.23;;;2.73;;
7971;SDS011;4031;49.758;6.120;2022-09-06T01:15:14;3.07;;;2.60;;
7971;SDS011;4031;49.758;6.120;2022-09-06T01:18:41;3.77;;;2.73;;
7971;SDS011;4031;49.758;6.120;2022-09-06T01:21:33;5.60;;;2.87;;
7971;SDS011;4031;49.758;6.120;2022-09-06T01:37:49;4.17;;;2.80;;
7971;SDS011;4031;49.758;6.120;2022-09-06T01:40:15;5.23;;;3.03;;
7971;SDS011;4031;49.758;6.120;2022-09-06T01:42:40;4.83;;;3.13;;
7971;SDS011;4031;49.758;6.120;2022-09-06T01:45:11;3.93;;;2.77;;
7971;SDS011;4031;49.758;6.120;2022-09-06T01:51:42;5.40;;;3.30;;
7971;SDS011;4031;49.758;6.120;2022-09-06T01:57:41;4.87;;;3.00;;
7971;SDS011;4031;49.758;6.120;2022-09-06T02:00:17;10.93;;;4.47;;
7971;SDS011;4031;49.758;6.120;2022-09-06T02:05:36;10.20;;;3.77;;
7971;SDS011;4031;49.758;6.120;2022-09-06T02:08:09;8.97;;;4.03;;
7971;SDS011;4031;49.758;6.120;2022-09-06T02:11:01;6.40;;;4.20;;
7971;SDS011;4031;49.758;6.120;2022-09-06T02:13:37;5.67;;;3.90;;
7971;SDS011;4031;49.758;6.120;2022-09-06T02:16:35;5.23;;;2.77;;
7971;SDS011;4031;49.758;6.120;2022-09-06T02:21:37;5.70;;;3.60;;
7971;SDS011;4031;49.758;6.120;2022-09-06T02:24:08;5.23;;;3.87;;
7971;SDS011;4031;49.758;6.120;2022-09-06T02:26:38;7.57;;;3.70;;
7971;SDS011;4031;49.758;6.120;2022-09-06T02:29:07;5.30;;;3.13;;
7971;SDS011;4031;49.758;6.120;2022-09-06T02:31:37;5.13;;;3.37;;
7971;SDS011;4031;49.758;6.120;2022-09-06T02:34:16;4.70;;;3.60;;
7971;SDS011;4031;49.758;6.120;2022-09-06T02:36:43;4.00;;;3.60;;
7971;SDS011;4031;49.758;6.120;2022-09-06T02:39:09;4.70;;;3.40;;
7971;SDS011;4031;49.758;6.120;2022-09-06T02:41:36;6.17;;;3.57;;
7971;SDS011;4031;49.758;6.120;2022-09-06T02:44:04;8.13;;;4.07;;
7971;SDS011;4031;49.758;6.120;2022-09-06T02:46:29;6.17;;;3.87;;
7971;SDS011;4031;49.758;6.120;2022-09-06T02:48:55;7.30;;;4.03;;
7971;SDS011;4031;49.758;6.120;2022-09-06T02:51:21;6.20;;;4.40;;
7971;SDS011;4031;49.758;6.120;2022-09-06T02:53:47;5.43;;;4.30;;
7971;SDS011;4031;49.758;6.120;2022-09-06T02:56:13;7.50;;;4.63;;
7971;SDS011;4031;49.758;6.120;2022-09-06T02:58:38;8.27;;;4.60;;
7971;SDS011;4031;49.758;6.120;2022-09-06T03:01:04;8.30;;;4.63;;
7971;SDS011;4031;49.758;6.120;2022-09-06T03:03:30;7.40;;;4.90;;
7971;SDS011;4031;49.758;6.120;2022-09-06T03:05:56;9.63;;;5.17;;
7971;SDS011;4031;49.758;6.120;2022-09-06T03:08:22;10.23;;;4.33;;
7971;SDS011;4031;49.758;6.120;2022-09-06T03:10:57;10.40;;;5.47;;
7971;SDS011;4031;49.758;6.120;2022-09-06T03:13:24;13.50;;;4.50;;
7971;SDS011;4031;49.758;6.120;2022-09-06T03:15:54;8.80;;;5.40;;
7971;SDS011;4031;49.758;6.120;2022-09-06T03:18:23;9.70;;;5.70;;
7971;SDS011;4031;49.758;6.120;2022-09-06T03:20:51;7.93;;;5.27;;
7971;SDS011;4031;49.758;6.120;2022-09-06T03:23:20;8.80;;;5.30;;
7971;SDS011;4031;49.758;6.120;2022-09-06T03:25:48;9.90;;;5.23;;
7971;SDS011;4031;49.758;6.120;2022-09-06T03:28:14;125.27;;;15.40;;
7971;SDS011;4031;49.758;6.120;2022-09-06T03:30:43;53.43;;;9.77;;
7971;SDS011;4031;49.758;6.120;2022-09-06T03:33:10;76.57;;;11.07;;
7971;SDS011;4031;49.758;6.120;2022-09-06T03:35:36;78.83;;;11.67;;
7971;SDS011;4031;49.758;6.120;2022-09-06T03:38:02;65.70;;;10.73;;
7971;SDS011;4031;49.758;6.120;2022-09-06T03:40:29;45.00;;;9.30;;
7971;SDS011;4031;49.758;6.120;2022-09-06T03:42:54;14.13;;;6.03;;
7971;SDS011;4031;49.758;6.120;2022-09-06T03:45:20;32.90;;;7.43;;
7971;SDS011;4031;49.758;6.120;2022-09-06T03:47:46;40.83;;;8.03;;
7971;SDS011;4031;49.758;6.120;2022-09-06T03:50:12;40.53;;;7.93;;
7971;SDS011;4031;49.758;6.120;2022-09-06T03:52:37;57.07;;;9.33;;
7971;SDS011;4031;49.758;6.120;2022-09-06T03:55:04;76.67;;;10.30;;
7971;SDS011;4031;49.758;6.120;2022-09-06T03:57:31;110.43;;;12.17;;
7971;SDS011;4031;49.758;6.120;2022-09-06T03:59:56;78.70;;;12.27;;
7971;SDS011;4031;49.758;6.120;2022-09-06T04:02:22;71.33;;;10.97;;
7971;SDS011;4031;49.758;6.120;2022-09-06T04:04:48;73.50;;;9.17;;
7971;SDS011;4031;49.758;6.120;2022-09-06T04:07:13;95.03;;;11.30;;
7971;SDS011;4031;49.758;6.120;2022-09-06T04:09:39;59.67;;;8.77;;
7971;SDS011;4031;49.758;6.120;2022-09-06T04:12:05;51.90;;;8.70;;
7971;SDS011;4031;49.758;6.120;2022-09-06T04:14:31;43.00;;;8.50;;
7971;SDS011;4031;49.758;6.120;2022-09-06T04:16:57;24.77;;;5.70;;
7971;SDS011;4031;49.758;6.120;2022-09-06T04:19:22;36.33;;;7.40;;
7971;SDS011;4031;49.758;6.120;2022-09-06T04:21:48;32.90;;;6.20;;
7971;SDS011;4031;49.758;6.120;2022-09-06T04:24:14;24.17;;;5.70;;
7971;SDS011;4031;49.758;6.120;2022-09-06T04:26:39;34.50;;;6.20;;
7971;SDS011;4031;49.758;6.120;2022-09-06T04:29:05;37.80;;;5.50;;
7971;SDS011;4031;49.758;6.120;2022-09-06T04:31:31;16.90;;;4.90;;
7971;SDS011;4031;49.758;6.120;2022-09-06T04:33:56;35.37;;;6.37;;
7971;SDS011;4031;49.758;6.120;2022-09-06T04:36:22;25.60;;;4.63;;
7971;SDS011;4031;49.758;6.120;2022-09-06T04:38:48;20.87;;;5.23;;
7971;SDS011;4031;49.758;6.120;2022-09-06T04:41:14;27.33;;;5.23;;
7971;SDS011;4031;49.758;6.120;2022-09-06T04:43:41;34.90;;;5.90;;
7971;SDS011;4031;49.758;6.120;2022-09-06T04:48:43;32.93;;;5.73;;
7971;SDS011;4031;49.758;6.120;2022-09-06T04:51:09;32.20;;;5.60;;
7971;SDS011;4031;49.758;6.120;2022-09-06T04:53:35;25.07;;;4.87;;
7971;SDS011;4031;49.758;6.120;2022-09-06T04:56:01;24.70;;;6.00;;
7971;SDS011;4031;49.758;6.120;2022-09-06T04:58:26;14.40;;;4.67;;
7971;SDS011;4031;49.758;6.120;2022-09-06T05:00:52;22.77;;;4.97;;
7971;SDS011;4031;49.758;6.120;2022-09-06T05:03:18;14.53;;;4.80;;
7971;SDS011;4031;49.758;6.120;2022-09-06T05:05:44;20.60;;;5.40;;
7971;SDS011;4031;49.758;6.120;2022-09-06T05:08:10;22.47;;;5.37;;
7971;SDS011;4031;49.758;6.120;2022-09-06T05:10:35;28.70;;;5.27;;
7971;SDS011;4031;49.758;6.120;2022-09-06T05:13:02;28.63;;;6.37;;
7971;SDS011;4031;49.758;6.120;2022-09-06T05:15:28;10.30;;;4.60;;
7971;SDS011;4031;49.758;6.120;2022-09-06T05:18:00;59.33;;;9.47;;
7971;SDS011;4031;49.758;6.120;2022-09-06T05:20:28;23.13;;;6.10;;
7971;SDS011;4031;49.758;6.120;2022-09-06T05:22:54;39.43;;;7.03;;
7971;SDS011;4031;49.758;6.120;2022-09-06T05:25:20;45.20;;;8.47;;
7971;SDS011;4031;49.758;6.120;2022-09-06T05:27:45;65.17;;;8.40;;
7971;SDS011;4031;49.758;6.120;2022-09-06T05:30:12;74.27;;;8.27;;
7971;SDS011;4031;49.758;6.120;2022-09-06T05:32:39;63.27;;;8.53;;
7971;SDS011;4031;49.758;6.120;2022-09-06T05:35:04;72.37;;;7.77;;
7971;SDS011;4031;49.758;6.120;2022-09-06T05:37:30;43.63;;;5.70;;
7971;SDS011;4031;49.758;6.120;2022-09-06T05:39:56;28.53;;;6.10;;
7971;SDS011;4031;49.758;6.120;2022-09-06T05:42:24;46.10;;;6.47;;
7971;SDS011;4031;49.758;6.120;2022-09-06T05:44:49;37.13;;;7.00;;
7971;SDS011;4031;49.758;6.120;2022-09-06T05:47:15;54.57;;;7.23;;
7971;SDS011;4031;49.758;6.120;2022-09-06T05:49:41;55.83;;;7.10;;
7971;SDS011;4031;49.758;6.120;2022-09-06T05:52:07;28.97;;;6.40;;
7971;SDS011;4031;49.758;6.120;2022-09-06T05:54:32;62.10;;;8.17;;
7971;SDS011;4031;49.758;6.120;2022-09-06T05:56:58;113.70;;;11.47;;
7971;SDS011;4031;49.758;6.120;2022-09-06T05:59:24;45.97;;;8.30;;
7971;SDS011;4031;49.758;6.120;2022-09-06T06:01:51;64.77;;;10.10;;
7971;SDS011;4031;49.758;6.120;2022-09-06T06:04:18;105.07;;;11.93;;
7971;SDS011;4031;49.758;6.120;2022-09-06T06:06:44;83.87;;;10.73;;
7971;SDS011;4031;49.758;6.120;2022-09-06T06:09:11;44.43;;;7.87;;
7971;SDS011;4031;49.758;6.120;2022-09-06T06:11:38;47.70;;;8.03;;
7971;SDS011;4031;49.758;6.120;2022-09-06T06:14:04;42.47;;;8.40;;
7971;SDS011;4031;49.758;6.120;2022-09-06T06:16:30;29.43;;;6.93;;
7971;SDS011;4031;49.758;6.120;2022-09-06T06:18:56;27.10;;;5.77;;
7971;SDS011;4031;49.758;6.120;2022-09-06T06:21:23;21.10;;;5.77;;
7971;SDS011;4031;49.758;6.120;2022-09-06T06:23:54;26.30;;;6.77;;
7971;SDS011;4031;49.758;6.120;2022-09-06T06:26:22;9.00;;;5.03;;
7971;SDS011;4031;49.758;6.120;2022-09-06T06:28:48;23.13;;;5.90;;
7971;SDS011;4031;49.758;6.120;2022-09-06T06:31:14;7.47;;;4.20;;
7971;SDS011;4031;49.758;6.120;2022-09-06T06:33:40;13.43;;;5.53;;
7971;SDS011;4031;49.758;6.120;2022-09-06T06:36:17;31.47;;;5.93;;
7971;SDS011;4031;49.758;6.120;2022-09-06T06:38:46;17.20;;;6.27;;
7971;SDS011;4031;49.758;6.120;2022-09-06T06:41:13;23.53;;;5.80;;
7971;SDS011;4031;49.758;6.120;2022-09-06T06:43:42;32.57;;;6.07;;
7971;SDS011;4031;49.758;6.120;2022-09-06T06:46:09;25.77;;;5.80;;
7971;SDS011;4031;49.758;6.120;2022-09-06T06:48:38;25.53;;;5.90;;
7971;SDS011;4031;49.758;6.120;2022-09-06T06:51:05;18.73;;;6.03;;
7971;SDS011;4031;49.758;6.120;2022-09-06T06:53:42;17.70;;;5.53;;
7971;SDS011;4031;49.758;6.120;2022-09-06T06:56:28;30.53;;;5.50;;
7971;SDS011;4031;49.758;6.120;2022-09-06T06:59:00;12.53;;;5.27;;
7971;SDS011;4031;49.758;6.120;2022-09-06T07:01:29;14.43;;;4.93;;
7971;SDS011;4031;49.758;6.120;2022-09-06T07:03:57;9.07;;;5.00;;
7971;SDS011;4031;49.758;6.120;2022-09-06T07:06:23;10.50;;;4.73;;
7971;SDS011;4031;49.758;6.120;2022-09-06T07:08:51;9.10;;;5.60;;
7971;SDS011;4031;49.758;6.120;2022-09-06T07:11:17;5.23;;;4.20;;
7971;SDS011;4031;49.758;6.120;2022-09-06T07:13:43;10.73;;;5.03;;
7971;SDS011;4031;49.758;6.120;2022-09-06T07:18:49;7.27;;;5.17;;
7971;SDS011;4031;49.758;6.120;2022-09-06T07:21:17;8.27;;;5.03;;
7971;SDS011;4031;49.758;6.120;2022-09-06T07:23:50;7.10;;;5.40;;
7971;SDS011;4031;49.758;6.120;2022-09-06T07:26:20;6.70;;;4.67;;
7971;SDS011;4031;49.758;6.120;2022-09-06T07:28:52;8.40;;;6.10;;
7971;SDS011;4031;49.758;6.120;2022-09-06T07:31:19;6.83;;;4.80;;
7971;SDS011;4031;49.758;6.120;2022-09-06T07:33:45;8.00;;;4.30;;
7971;SDS011;4031;49.758;6.120;2022-09-06T07:36:11;8.67;;;4.80;;
7971;SDS011;4031;49.758;6.120;2022-09-06T07:38:37;22.07;;;6.10;;
7971;SDS011;4031;49.758;6.120;2022-09-06T07:41:06;5.40;;;4.60;;
7971;SDS011;4031;49.758;6.120;2022-09-06T07:43:34;6.27;;;4.77;;
7971;SDS011;4031;49.758;6.120;2022-09-06T07:48:34;9.30;;;5.77;;
7971;SDS011;4031;49.758;6.120;2022-09-06T07:51:10;9.70;;;5.80;;
7971;SDS011;4031;49.758;6.120;2022-09-06T07:53:49;6.80;;;5.30;;
7971;SDS011;4031;49.758;6.120;2022-09-06T07:56:18;7.93;;;5.17;;
7971;SDS011;4031;49.758;6.120;2022-09-06T07:58:46;8.50;;;5.73;;
7971;SDS011;4031;49.758;6.120;2022-09-06T08:03:54;8.73;;;5.93;;
7971;SDS011;4031;49.758;6.120;2022-09-06T08:06:29;8.90;;;6.60;;
7971;SDS011;4031;49.758;6.120;2022-09-06T08:08:57;6.97;;;5.80;;
7971;SDS011;4031;49.758;6.120;2022-09-06T08:11:24;7.93;;;6.07;;
7971;SDS011;4031;49.758;6.120;2022-09-06T08:13:53;6.30;;;5.70;;
7971;SDS011;4031;49.758;6.120;2022-09-06T08:16:20;6.60;;;5.60;;
7971;SDS011;4031;49.758;6.120;2022-09-06T08:18:49;6.87;;;5.23;;
7971;SDS011;4031;49.758;6.120;2022-09-06T08:21:19;6.13;;;5.37;;
7971;SDS011;4031;49.758;6.120;2022-09-06T08:23:51;6.30;;;4.90;;
7971;SDS011;4031;49.758;6.120;2022-09-06T08:26:29;6.13;;;5.40;;
7971;SDS011;4031;49.758;6.120;2022-09-06T08:28:57;8.93;;;4.33;;
7971;SDS011;4031;49.758;6.120;2022-09-06T08:31:30;9.83;;;6.00;;
7971;SDS011;4031;49.758;6.120;2022-09-06T08:33:58;5.10;;;4.60;;
7971;SDS011;4031;49.758;6.120;2022-09-06T08:36:25;6.97;;;4.90;;
7971;SDS011;4031;49.758;6.120;2022-09-06T08:38:53;5.00;;;4.57;;
7971;SDS011;4031;49.758;6.120;2022-09-06T08:41:28;5.90;;;4.60;;
7971;SDS011;4031;49.758;6.120;2022-09-06T08:46:36;5.07;;;4.57;;
7971;SDS011;4031;49.758;6.120;2022-09-06T08:49:38;5.57;;;4.33;;
7971;SDS011;4031;49.758;6.120;2022-09-06T08:52:20;5.13;;;4.40;;
7971;SDS011;4031;49.758;6.120;2022-09-06T09:01:23;4.93;;;3.40;;
7971;SDS011;4031;49.758;6.120;2022-09-06T09:03:56;5.53;;;3.30;;
7971;SDS011;4031;49.758;6.120;2022-09-06T09:06:29;4.60;;;3.57;;
7971;SDS011;4031;49.758;6.120;2022-09-06T09:09:03;4.97;;;3.70;;
7971;SDS011;4031;49.758;6.120;2022-09-06T09:11:32;4.13;;;3.00;;
7971;SDS011;4031;49.758;6.120;2022-09-06T09:16:51;2.80;;;2.60;;
7971;SDS011;4031;49.758;6.120;2022-09-06T09:19:25;3.47;;;3.10;;
7971;SDS011;4031;49.758;6.120;2022-09-06T09:21:51;3.00;;;2.63;;
7971;SDS011;4031;49.758;6.120;2022-09-06T09:24:17;3.50;;;2.40;;
7971;SDS011;4031;49.758;6.120;2022-09-06T09:26:50;4.50;;;3.17;;
7971;SDS011;4031;49.758;6.120;2022-09-06T09:29:23;4.10;;;2.73;;
7971;SDS011;4031;49.758;6.120;2022-09-06T09:31:49;4.20;;;3.20;;
7971;SDS011;4031;49.758;6.120;2022-09-06T09:39:48;4.07;;;2.90;;
7971;SDS011;4031;49.758;6.120;2022-09-06T09:42:28;5.20;;;2.73;;
7971;SDS011;4031;49.758;6.120;2022-09-06T09:44:58;4.63;;;3.00;;
7971;SDS011;4031;49.758;6.120;2022-09-06T09:47:28;4.57;;;2.80;;
7971;SDS011;4031;49.758;6.120;2022-09-06T09:49:56;4.03;;;3.23;;
7971;SDS011;4031;49.758;6.120;2022-09-06T09:52:24;2.73;;;2.50;;
7971;SDS011;4031;49.758;6.120;2022-09-06T09:54:55;5.33;;;2.43;;
7971;SDS011;4031;49.758;6.120;2022-09-06T09:57:31;5.50;;;2.70;;
7971;SDS011;4031;49.758;6.120;2022-09-06T10:00:10;4.10;;;2.60;;
7971;SDS011;4031;49.758;6.120;2022-09-06T10:02:38;2.80;;;2.20;;
7971;SDS011;4031;49.758;6.120;2022-09-06T10:07:45;6.53;;;2.97;;
7971;SDS011;4031;49.758;6.120;2022-09-06T10:10:23;2.93;;;2.43;;
7971;SDS011;4031;49.758;6.120;2022-09-06T10:13:05;3.93;;;2.33;;
7971;SDS011;4031;49.758;6.120;2022-09-06T10:15:47;4.47;;;2.53;;
7971;SDS011;4031;49.758;6.120;2022-09-06T10:18:16;4.43;;;2.30;;
7971;SDS011;4031;49.758;6.120;2022-09-06T10:28:51;3.60;;;2.23;;
7971;SDS011;4031;49.758;6.120;2022-09-06T10:31:35;6.40;;;2.80;;
7971;SDS011;4031;49.758;6.120;2022-09-06T10:34:15;5.57;;;2.47;;
7971;SDS011;4031;49.758;6.120;2022-09-06T10:40:05;2.70;;;2.33;;
7971;SDS011;4031;49.758;6.120;2022-09-06T10:48:26;2.47;;;2.07;;
7971;SDS011;4031;49.758;6.120;2022-09-06T10:56:28;2.83;;;2.33;;
7971;SDS011;4031;49.758;6.120;2022-09-06T10:59:09;3.17;;;2.10;;
7971;SDS011;4031;49.758;6.120;2022-09-06T11:04:35;4.00;;;2.33;;
7971;SDS011;4031;49.758;6.120;2022-09-06T11:07:15;2.00;;;1.80;;
7971;SDS011;4031;49.758;6.120;2022-09-06T11:09:58;3.30;;;2.30;;
7971;SDS011;4031;49.758;6.120;2022-09-06T11:12:48;2.70;;;2.03;;
7971;SDS011;4031;49.758;6.120;2022-09-06T11:15:28;6.10;;;2.83;;
7971;SDS011;4031;49.758;6.120;2022-09-06T11:29:44;2.90;;;2.00;;
7971;SDS011;4031;49.758;6.120;2022-09-06T11:32:33;4.77;;;2.10;;
7971;SDS011;4031;49.758;6.120;2022-09-06T11:35:26;4.70;;;1.80;;
7971;SDS011;4031;49.758;6.120;2022-09-06T11:38:00;5.10;;;2.20;;
7971;SDS011;4031;49.758;6.120;2022-09-06T11:40:51;3.13;;;1.90;;
7971;SDS011;4031;49.758;6.120;2022-09-06T11:51:42;4.83;;;1.90;;
7971;SDS011;4031;49.758;6.120;2022-09-06T11:56:57;2.60;;;2.33;;
7971;SDS011;4031;49.758;6.120;2022-09-06T12:07:32;2.77;;;2.00;;
7971;SDS011;4031;49.758;6.120;2022-09-06T12:10:00;2.07;;;1.87;;
7971;SDS011;4031;49.758;6.120;2022-09-06T12:12:55;2.87;;;1.87;;
7971;SDS011;4031;49.758;6.120;2022-09-06T12:15:25;2.37;;;1.90;;
7971;SDS011;4031;49.758;6.120;2022-09-06T12:17:53;4.00;;;1.50;;
7971;SDS011;4031;49.758;6.120;2022-09-06T12:23:51;1.93;;;1.73;;
7971;SDS011;4031;49.758;6.120;2022-09-06T12:26:10;3.70;;;1.70;;
7971;SDS011;4031;49.758;6.120;2022-09-06T12:28:41;2.37;;;1.90;;
7971;SDS011;4031;49.758;6.120;2022-09-06T12:31:31;2.70;;;1.80;;
7971;SDS011;4031;49.758;6.120;2022-09-06T12:34:07;3.47;;;1.70;;
7971;SDS011;4031;49.758;6.120;2022-09-06T12:39:31;2.60;;;1.83;;
7971;SDS011;4031;49.758;6.120;2022-09-06T12:42:02;3.90;;;1.90;;
7971;SDS011;4031;49.758;6.120;2022-09-06T12:44:36;2.00;;;1.57;;
7971;SDS011;4031;49.758;6.120;2022-09-06T12:47:13;3.67;;;1.93;;
7971;SDS011;4031;49.758;6.120;2022-09-06T12:55:38;1.87;;;1.70;;
7971;SDS011;4031;49.758;6.120;2022-09-06T12:58:04;4.43;;;1.47;;
7971;SDS011;4031;49.758;6.120;2022-09-06T13:00:35;4.40;;;2.10;;
7971;SDS011;4031;49.758;6.120;2022-09-06T13:05:37;7.53;;;2.00;;
7971;SDS011;4031;49.758;6.120;2022-09-06T13:08:05;3.07;;;1.60;;
7971;SDS011;4031;49.758;6.120;2022-09-06T13:10:52;2.23;;;1.70;;
7971;SDS011;4031;49.758;6.120;2022-09-06T13:13:22;3.40;;;1.67;;
7971;SDS011;4031;49.758;6.120;2022-09-06T13:15:50;3.00;;;1.67;;
7971;SDS011;4031;49.758;6.120;2022-09-06T13:21:09;2.40;;;1.90;;
7971;SDS011;4031;49.758;6.120;2022-09-06T13:23:44;2.97;;;1.90;;
7971;SDS011;4031;49.758;6.120;2022-09-06T13:26:13;7.50;;;1.90;;
7971;SDS011;4031;49.758;6.120;2022-09-06T13:29:40;4.13;;;2.10;;
7971;SDS011;4031;49.758;6.120;2022-09-06T13:31:55;5.07;;;2.00;;
7971;SDS011;4031;49.758;6.120;2022-09-06T13:36:52;3.43;;;1.77;;
7971;SDS011;4031;49.758;6.120;2022-09-06T13:39:30;4.30;;;1.80;;
7971;SDS011;4031;49.758;6.120;2022-09-06T13:42:00;3.90;;;1.73;;
7971;SDS011;4031;49.758;6.120;2022-09-06T13:44:35;3.10;;;1.70;;
7971;SDS011;4031;49.758;6.120;2022-09-06T13:47:02;3.80;;;1.73;;
7971;SDS011;4031;49.758;6.120;2022-09-06T13:49:29;2.60;;;1.93;;
7971;SDS011;4031;49.758;6.120;2022-09-06T13:51:57;3.10;;;1.90;;
7971;SDS011;4031;49.758;6.120;2022-09-06T13:54:26;4.63;;;2.40;;
7971;SDS011;4031;49.758;6.120;2022-09-06T13:56:53;3.33;;;2.03;;
7971;SDS011;4031;49.758;6.120;2022-09-06T13:59:20;2.63;;;2.00;;
7971;SDS011;4031;49.758;6.120;2022-09-06T14:01:49;3.63;;;2.53;;
7971;SDS011;4031;49.758;6.120;2022-09-06T14:04:30;3.43;;;1.77;;
7971;SDS011;4031;49.758;6.120;2022-09-06T14:06:56;2.00;;;1.80;;
7971;SDS011;4031;49.758;6.120;2022-09-06T14:09:22;2.63;;;2.43;;
7971;SDS011;4031;49.758;6.120;2022-09-06T14:11:48;4.63;;;2.30;;
7971;SDS011;4031;49.758;6.120;2022-09-06T14:14:14;6.60;;;2.40;;
7971;SDS011;4031;49.758;6.120;2022-09-06T14:16:41;3.33;;;2.63;;
7971;SDS011;4031;49.758;6.120;2022-09-06T14:19:08;8.50;;;4.00;;
7971;SDS011;4031;49.758;6.120;2022-09-06T14:21:34;3.43;;;2.37;;
7971;SDS011;4031;49.758;6.120;2022-09-06T14:24:00;2.63;;;2.10;;
7971;SDS011;4031;49.758;6.120;2022-09-06T14:26:27;2.47;;;2.00;;
7971;SDS011;4031;49.758;6.120;2022-09-06T14:28:54;19.43;;;3.60;;
7971;SDS011;4031;49.758;6.120;2022-09-06T14:31:21;3.50;;;2.73;;
7971;SDS011;4031;49.758;6.120;2022-09-06T14:33:51;3.47;;;2.63;;
7971;SDS011;4031;49.758;6.120;2022-09-06T14:36:19;2.87;;;2.10;;
7971;SDS011;4031;49.758;6.120;2022-09-06T14:38:50;2.80;;;2.20;;
7971;SDS011;4031;49.758;6.120;2022-09-06T14:41:16;2.90;;;2.03;;
7971;SDS011;4031;49.758;6.120;2022-09-06T14:43:46;4.57;;;2.50;;
7971;SDS011;4031;49.758;6.120;2022-09-06T14:46:15;4.70;;;2.40;;
7971;SDS011;4031;49.758;6.120;2022-09-06T14:48:43;4.27;;;2.43;;
7971;SDS011;4031;49.758;6.120;2022-09-06T14:51:10;3.20;;;2.37;;
7971;SDS011;4031;49.758;6.120;2022-09-06T14:53:48;3.53;;;2.10;;
7971;SDS011;4031;49.758;6.120;2022-09-06T14:56:20;3.40;;;2.00;;
7971;SDS011;4031;49.758;6.120;2022-09-06T14:58:46;3.33;;;2.63;;
7971;SDS011;4031;49.758;6.120;2022-09-06T15:01:16;2.87;;;2.40;;
7971;SDS011;4031;49.758;6.120;2022-09-06T15:03:46;6.20;;;2.20;;
7971;SDS011;4031;49.758;6.120;2022-09-06T15:06:15;2.43;;;1.97;;
7971;SDS011;4031;49.758;6.120;2022-09-06T15:08:43;2.90;;;2.30;;
7971;SDS011;4031;49.758;6.120;2022-09-06T15:11:10;4.00;;;2.40;;
7971;SDS011;4031;49.758;6.120;2022-09-06T15:13:36;4.90;;;2.30;;
7971;SDS011;4031;49.758;6.120;2022-09-06T15:16:04;3.57;;;2.10;;
7971;SDS011;4031;49.758;6.120;2022-09-06T15:18:32;3.33;;;2.23;;
7971;SDS011;4031;49.758;6.120;2022-09-06T15:21:16;5.40;;;2.27;;
7971;SDS011;4031;49.758;6.120;2022-09-06T15:23:42;4.17;;;2.40;;
7971;SDS011;4031;49.758;6.120;2022-09-06T15:26:09;5.23;;;2.40;;
7971;SDS011;4031;49.758;6.120;2022-09-06T15:28:37;4.10;;;2.47;;
7971;SDS011;4031;49.758;6.120;2022-09-06T15:31:06;4.90;;;2.10;;
7971;SDS011;4031;49.758;6.120;2022-09-06T15:33:33;4.00;;;2.60;;
7971;SDS011;4031;49.758;6.120;2022-09-06T15:36:01;3.27;;;2.37;;
7971;SDS011;4031;49.758;6.120;2022-09-06T15:38:31;3.50;;;1.97;;
7971;SDS011;4031;49.758;6.120;2022-09-06T15:41:15;3.10;;;2.13;;
7971;SDS011;4031;49.758;6.120;2022-09-06T15:43:44;3.17;;;2.07;;
7971;SDS011;4031;49.758;6.120;2022-09-06T15:46:13;3.20;;;2.10;;
7971;SDS011;4031;49.758;6.120;2022-09-06T15:48:43;5.53;;;2.50;;
7971;SDS011;4031;49.758;6.120;2022-09-06T15:51:13;3.23;;;1.90;;
7971;SDS011;4031;49.758;6.120;2022-09-06T15:53:41;3.17;;;1.77;;
7971;SDS011;4031;49.758;6.120;2022-09-06T15:56:09;3.60;;;2.30;;
7971;SDS011;4031;49.758;6.120;2022-09-06T15:58:37;2.97;;;1.90;;
7971;SDS011;4031;49.758;6.120;2022-09-06T16:03:36;1.90;;;1.70;;
7971;SDS011;4031;49.758;6.120;2022-09-06T16:06:06;4.10;;;2.37;;
7971;SDS011;4031;49.758;6.120;2022-09-06T16:08:38;2.37;;;2.17;;
7971;SDS011;4031;49.758;6.120;2022-09-06T16:11:07;5.10;;;2.20;;
7971;SDS011;4031;49.758;6.120;2022-09-06T16:13:39;3.50;;;1.90;;
7971;SDS011;4031;49.758;6.120;2022-09-06T16:16:07;2.83;;;2.47;;
7971;SDS011;4031;49.758;6.120;2022-09-06T16:18:36;3.20;;;2.30;;
7971;SDS011;4031;49.758;6.120;2022-09-06T16:26:18;3.17;;;2.10;;
7971;SDS011;4031;49.758;6.120;2022-09-06T16:28:46;5.10;;;2.57;;
7971;SDS011;4031;49.758;6.120;2022-09-06T16:31:14;4.90;;;2.50;;
7971;SDS011;4031;49.758;6.120;2022-09-06T16:33:39;3.30;;;2.03;;
7971;SDS011;4031;49.758;6.120;2022-09-06T16:36:07;2.60;;;2.40;;
7971;SDS011;4031;49.758;6.120;2022-09-06T16:38:34;4.87;;;2.60;;
7971;SDS011;4031;49.758;6.120;2022-09-06T16:41:07;3.30;;;2.33;;
7971;SDS011;4031;49.758;6.120;2022-09-06T16:43:46;2.63;;;2.03;;
7971;SDS011;4031;49.758;6.120;2022-09-06T16:46:19;4.67;;;2.60;;
7971;SDS011;4031;49.758;6.120;2022-09-06T16:48:53;3.70;;;2.30;;
7971;SDS011;4031;49.758;6.120;2022-09-06T16:51:22;4.00;;;2.60;;
7971;SDS011;4031;49.758;6.120;2022-09-06T16:53:52;5.73;;;2.47;;
7971;SDS011;4031;49.758;6.120;2022-09-06T16:56:20;2.70;;;2.30;;
7971;SDS011;4031;49.758;6.120;2022-09-06T16:58:50;4.97;;;2.63;;
7971;SDS011;4031;49.758;6.120;2022-09-06T17:01:22;3.60;;;2.40;;
7971;SDS011;4031;49.758;6.120;2022-09-06T17:03:50;3.60;;;2.20;;
7971;SDS011;4031;49.758;6.120;2022-09-06T17:06:16;2.90;;;2.60;;
7971;SDS011;4031;49.758;6.120;2022-09-06T17:08:43;4.57;;;3.07;;
7971;SDS011;4031;49.758;6.120;2022-09-06T17:11:19;3.00;;;2.70;;
7971;SDS011;4031;49.758;6.120;2022-09-06T17:13:47;3.63;;;2.93;;
7971;SDS011;4031;49.758;6.120;2022-09-06T17:16:14;3.30;;;2.80;;
7971;SDS011;4031;49.758;6.120;2022-09-06T17:18:59;3.43;;;2.50;;
7971;SDS011;4031;49.758;6.120;2022-09-06T17:21:26;12.33;;;3.17;;
7971;SDS011;4031;49.758;6.120;2022-09-06T17:23:53;6.17;;;2.70;;
7971;SDS011;4031;49.758;6.120;2022-09-06T17:26:20;5.43;;;2.47;;
7971;SDS011;4031;49.758;6.120;2022-09-06T17:28:47;6.67;;;3.00;;
7971;SDS011;4031;49.758;6.120;2022-09-06T17:31:14;3.50;;;2.50;;
7971;SDS011;4031;49.758;6.120;2022-09-06T17:33:40;4.37;;;3.03;;
7971;SDS011;4031;49.758;6.120;2022-09-06T17:36:10;2.93;;;2.67;;
7971;SDS011;4031;49.758;6.120;2022-09-06T17:38:40;7.53;;;3.20;;
7971;SDS011;4031;49.758;6.120;2022-09-06T17:41:07;9.80;;;3.60;;
7971;SDS011;4031;49.758;6.120;2022-09-06T17:43:47;8.70;;;4.07;;
7971;SDS011;4031;49.758;6.120;2022-09-06T17:46:13;8.50;;;4.47;;
7971;SDS011;4031;49.758;6.120;2022-09-06T17:48:39;10.17;;;4.43;;
7971;SDS011;4031;49.758;6.120;2022-09-06T17:51:08;7.80;;;4.13;;
7971;SDS011;4031;49.758;6.120;2022-09-06T17:53:35;11.53;;;4.60;;
7971;SDS011;4031;49.758;6.120;2022-09-06T17:56:06;6.50;;;4.20;;
7971;SDS011;4031;49.758;6.120;2022-09-06T17:58:38;8.40;;;3.90;;
7971;SDS011;4031;49.758;6.120;2022-09-06T18:01:05;6.07;;;3.67;;
7971;SDS011;4031;49.758;6.120;2022-09-06T18:03:34;5.30;;;3.93;;